VOE225 LFQQ-LFMN
Flight info
| Callsign | VOE225 |
|---|---|
| Flight time | N/A |
| Altitude | 25000 |
| Route | VERMA T372 LESDO DCT KOVIN DCT DUCRA/N0461F290 UM728 KOTAP/N0450F350 UM728 KETEX DCT KOTIS DCT KUKOR DCT UTUVA/N0453F330 DCT LERGA DCT LIQID DCT LATAM DCT TUNUR DCT NISAR |
| Aircraft | A320/M-SDE3FGHIRWY/LB1 |
Departure
| Time | 2026-04-17 02:00 |
|---|---|
| Airport | Lille Airport (LFQQ) |
Arrival
| Time | N/A |
|---|---|
| Airport | Nice-Côte d'Azur Airport (LFMN) |
| Time | Latitude | Longitude | Altitude | Speed | Heading |
|---|---|---|---|---|---|
| 2026-04-17 01:58 | 50.56880 | 3.11037 | 151 ft | 23 kts | 75° |
| 2026-04-17 01:59 | 50.56914 | 3.11281 | 152 ft | 24 kts | 80° |
| 2026-04-17 01:59 | 50.56939 | 3.11516 | 152 ft | 14 kts | 84° |
| 2026-04-17 01:59 | 50.56880 | 3.11612 | 152 ft | 13 kts | 154° |
| 2026-04-17 01:59 | 50.56804 | 3.11632 | 156 ft | 8 kts | 179° |
| 2026-04-17 02:00 | 50.56740 | 3.11510 | 158 ft | 25 kts | 258° |
| 2026-04-17 02:00 | 50.56643 | 3.10831 | 151 ft | 108 kts | 256° |
| 2026-04-17 02:00 | 50.56413 | 3.09295 | 242 ft | 168 kts | 256° |
| 2026-04-17 02:00 | 50.56123 | 3.07447 | 931 ft | 184 kts | 254° |
| 2026-04-17 02:01 | 50.55531 | 3.05722 | 1897 ft | 180 kts | 217° |
| 2026-04-17 02:01 | 50.54395 | 3.04731 | 2635 ft | 198 kts | 201° |
| 2026-04-17 02:01 | 50.53038 | 3.03932 | 3005 ft | 220 kts | 199° |
| 2026-04-17 02:01 | 50.51473 | 3.03340 | 3409 ft | 245 kts | 179° |
| 2026-04-17 02:02 | 50.49731 | 3.03631 | 4110 ft | 256 kts | 175° |
| 2026-04-17 02:02 | 50.47927 | 3.03809 | 4773 ft | 263 kts | 179° |
| 2026-04-17 02:02 | 50.46169 | 3.03862 | 5043 ft | 263 kts | 180° |
| 2026-04-17 02:02 | 50.44298 | 3.03870 | 5699 ft | 267 kts | 181° |
| 2026-04-17 02:03 | 50.42435 | 3.03855 | 6675 ft | 269 kts | 181° |
| 2026-04-17 02:03 | 50.40531 | 3.03837 | 7545 ft | 271 kts | 181° |
| 2026-04-17 02:03 | 50.38634 | 3.03826 | 8412 ft | 274 kts | 181° |
| 2026-04-17 02:03 | 50.36740 | 3.03824 | 9269 ft | 277 kts | 182° |
| 2026-04-17 02:04 | 50.34801 | 3.03829 | 10136 ft | 280 kts | 182° |
| 2026-04-17 02:04 | 50.32818 | 3.03836 | 10662 ft | 294 kts | 182° |
| 2026-04-17 02:04 | 50.30683 | 3.03840 | 10886 ft | 318 kts | 182° |
| 2026-04-17 02:04 | 50.28391 | 3.03879 | 11109 ft | 340 kts | 178° |
| 2026-04-17 02:05 | 50.26818 | 3.04206 | 11467 ft | 348 kts | 171° |
| 2026-04-17 02:05 | 50.24477 | 3.05333 | 12130 ft | 357 kts | 159° |
| 2026-04-17 02:05 | 50.22228 | 3.07055 | 12827 ft | 362 kts | 156° |
| 2026-04-17 02:05 | 50.19966 | 3.08835 | 13528 ft | 366 kts | 156° |
| 2026-04-17 02:06 | 50.17678 | 3.10627 | 14183 ft | 370 kts | 156° |
| 2026-04-17 02:06 | 50.15363 | 3.12431 | 14776 ft | 374 kts | 156° |
| 2026-04-17 02:06 | 50.13022 | 3.14248 | 15368 ft | 378 kts | 156° |
| 2026-04-17 02:06 | 50.10648 | 3.16088 | 15954 ft | 383 kts | 156° |
| 2026-04-17 02:07 | 50.08251 | 3.17945 | 16531 ft | 387 kts | 156° |
| 2026-04-17 02:07 | 50.05824 | 3.19820 | 17106 ft | 391 kts | 156° |
| 2026-04-17 02:07 | 50.03371 | 3.21714 | 17701 ft | 395 kts | 156° |
| 2026-04-17 02:07 | 50.00884 | 3.23610 | 18288 ft | 398 kts | 159° |
| 2026-04-17 02:08 | 49.98268 | 3.25019 | 18811 ft | 398 kts | 169° |
| 2026-04-17 02:08 | 49.95565 | 3.26075 | 19324 ft | 402 kts | 169° |
| 2026-04-17 02:08 | 49.92844 | 3.27131 | 19845 ft | 405 kts | 169° |
| 2026-04-17 02:08 | 49.90095 | 3.28197 | 20361 ft | 408 kts | 169° |
| 2026-04-17 02:09 | 49.87329 | 3.29271 | 20864 ft | 412 kts | 169° |
| 2026-04-17 02:09 | 49.84530 | 3.30241 | 21344 ft | 413 kts | 175° |
| 2026-04-17 02:09 | 49.81664 | 3.30515 | 21814 ft | 412 kts | 185° |
| 2026-04-17 02:09 | 49.78830 | 3.29988 | 22276 ft | 410 kts | 195° |
| 2026-04-17 02:10 | 49.76107 | 3.28684 | 22737 ft | 409 kts | 205° |
| 2026-04-17 02:10 | 49.73484 | 3.26945 | 23192 ft | 412 kts | 206° |
| 2026-04-17 02:10 | 49.70875 | 3.25220 | 23637 ft | 414 kts | 206° |
| 2026-04-17 02:10 | 49.68207 | 3.23463 | 24017 ft | 417 kts | 206° |
| 2026-04-17 02:11 | 49.65522 | 3.21701 | 24377 ft | 419 kts | 206° |
| 2026-04-17 02:11 | 49.62831 | 3.19941 | 24736 ft | 421 kts | 205° |
| 2026-04-17 02:11 | 49.59994 | 3.18678 | 25095 ft | 429 kts | 192° |
| 2026-04-17 02:11 | 49.57017 | 3.18115 | 25449 ft | 431 kts | 190° |
| 2026-04-17 02:12 | 49.54026 | 3.17602 | 25790 ft | 433 kts | 189° |
| 2026-04-17 02:12 | 49.51022 | 3.17109 | 26132 ft | 435 kts | 189° |
| 2026-04-17 02:12 | 49.48038 | 3.16626 | 26451 ft | 437 kts | 189° |
| 2026-04-17 02:12 | 49.45003 | 3.16133 | 26768 ft | 439 kts | 189° |
| 2026-04-17 02:13 | 49.41952 | 3.15628 | 27086 ft | 441 kts | 190° |
| 2026-04-17 02:13 | 49.38895 | 3.15115 | 27390 ft | 443 kts | 190° |
| 2026-04-17 02:13 | 49.35818 | 3.14598 | 27683 ft | 445 kts | 190° |
| 2026-04-17 02:13 | 49.32736 | 3.14078 | 27969 ft | 447 kts | 190° |
| 2026-04-17 02:14 | 49.29636 | 3.13551 | 28253 ft | 449 kts | 190° |
| 2026-04-17 02:14 | 49.26520 | 3.13019 | 28525 ft | 451 kts | 190° |
| 2026-04-17 02:14 | 49.23399 | 3.12487 | 28783 ft | 452 kts | 190° |
| 2026-04-17 02:14 | 49.20252 | 3.11959 | 29021 ft | 454 kts | 190° |
| 2026-04-17 02:15 | 49.17099 | 3.11436 | 29282 ft | 455 kts | 190° |
| 2026-04-17 02:15 | 49.13950 | 3.10917 | 29636 ft | 454 kts | 190° |
| 2026-04-17 02:15 | 49.10808 | 3.10398 | 29990 ft | 453 kts | 190° |
| 2026-04-17 02:15 | 49.07675 | 3.09880 | 30333 ft | 453 kts | 190° |
| 2026-04-17 02:16 | 49.04580 | 3.09368 | 30623 ft | 452 kts | 190° |
| 2026-04-17 02:16 | 49.01455 | 3.08853 | 30920 ft | 451 kts | 190° |
| 2026-04-17 02:16 | 48.98332 | 3.08337 | 31221 ft | 450 kts | 190° |
| 2026-04-17 02:16 | 48.95216 | 3.07817 | 31528 ft | 449 kts | 190° |
| 2026-04-17 02:17 | 48.92112 | 3.07300 | 31824 ft | 449 kts | 191° |
| 2026-04-17 02:17 | 48.89014 | 3.06785 | 32136 ft | 448 kts | 191° |
| 2026-04-17 02:17 | 48.85920 | 3.06271 | 32429 ft | 447 kts | 191° |
| 2026-04-17 02:17 | 48.82825 | 3.05759 | 32737 ft | 446 kts | 191° |
| 2026-04-17 02:18 | 48.79743 | 3.05253 | 33039 ft | 445 kts | 191° |
| 2026-04-17 02:18 | 48.76668 | 3.04748 | 33348 ft | 444 kts | 191° |
| 2026-04-17 02:18 | 48.73598 | 3.04241 | 33648 ft | 443 kts | 191° |
| 2026-04-17 02:18 | 48.70528 | 3.03737 | 33945 ft | 442 kts | 191° |
| 2026-04-17 02:19 | 48.67465 | 3.03237 | 34223 ft | 442 kts | 191° |
| 2026-04-17 02:19 | 48.64408 | 3.02741 | 34494 ft | 441 kts | 191° |
| 2026-04-17 02:19 | 48.61357 | 3.02243 | 34741 ft | 441 kts | 191° |
| 2026-04-17 02:19 | 48.58345 | 3.01749 | 34979 ft | 440 kts | 191° |
| 2026-04-17 02:20 | 48.55255 | 3.01243 | 35179 ft | 441 kts | 191° |
| 2026-04-17 02:20 | 48.49128 | 3.00243 | 35245 ft | 447 kts | 190° |
| 2026-04-17 02:21 | 48.42905 | 2.99237 | 35239 ft | 451 kts | 190° |
| 2026-04-17 02:21 | 48.36659 | 2.98219 | 35238 ft | 451 kts | 190° |
| 2026-04-17 02:22 | 48.30410 | 2.97207 | 35239 ft | 451 kts | 190° |
| 2026-04-17 02:22 | 48.24161 | 2.96209 | 35238 ft | 452 kts | 190° |
| 2026-04-17 02:23 | 48.17907 | 2.95204 | 35235 ft | 452 kts | 190° |
| 2026-04-17 02:23 | 48.11689 | 2.94202 | 35236 ft | 452 kts | 190° |
| 2026-04-17 02:24 | 48.05437 | 2.93206 | 35237 ft | 452 kts | 190° |
| 2026-04-17 02:24 | 47.99180 | 2.92209 | 35238 ft | 452 kts | 190° |
| 2026-04-17 02:25 | 47.92919 | 2.91213 | 35238 ft | 452 kts | 190° |
| 2026-04-17 02:25 | 47.86655 | 2.90210 | 35238 ft | 452 kts | 190° |
| 2026-04-17 02:26 | 47.80395 | 2.89223 | 35238 ft | 452 kts | 190° |
| 2026-04-17 02:26 | 47.74138 | 2.88240 | 35238 ft | 452 kts | 190° |
| 2026-04-17 02:27 | 47.67880 | 2.87255 | 35238 ft | 452 kts | 190° |
| 2026-04-17 02:27 | 47.61619 | 2.86267 | 35239 ft | 452 kts | 190° |